Time;durP1;ratioP1;P1;durP2;ratioP2;P2;SDS_P1;SDS_P2;PMS_P1;PMS_P2;Temp;Humidity;BMP_temperature;BMP_pressure;BME280_temperature;BME280_humidity;BME280_pressure;Samples;Min_cycle;Max_cycle;Signal;HPM_P1;HPM_P2
2021/10/22 00:00:49;;;;;;;0.20;0.20;;;;;;;4.34;100.00;99995.59;5077548;28;20468;-82
2021/10/22 00:03:23;;;;;;;0.30;0.30;;;;;;;4.22;100.00;99988.47;5089065;28;20476;-81
2021/10/22 00:05:56;;;;;;;0.20;0.20;;;;;;;4.35;100.00;100005.28;5082082;28;20643;-80
2021/10/22 00:08:25;;;;;;;0.20;0.20;;;;;;;4.33;100.00;99999.38;5081309;28;20504;-80
2021/10/22 00:10:59;;;;;;;0.20;0.20;;;;;;;4.35;100.00;100010.69;5084750;28;20039;-80
2021/10/22 00:13:28;;;;;;;0.20;0.20;;;;;;;4.30;100.00;100016.03;5086924;28;20121;-80
2021/10/22 00:16:02;;;;;;;0.20;0.20;;;;;;;4.35;100.00;100014.22;5084896;28;20508;-80
2021/10/22 00:18:36;;;;;;;0.20;0.20;;;;;;;4.42;100.00;100016.69;5083616;28;20068;-79
2021/10/22 00:21:11;;;;;;;0.20;0.20;;;;;;;4.50;100.00;100012.72;5087078;28;20063;-81
2021/10/22 00:23:46;;;;;;;0.20;0.20;;;;;;;4.49;100.00;100019.16;5102878;28;20047;-81
2021/10/22 00:26:14;;;;;;;0.20;0.20;;;;;;;4.52;100.00;100019.47;5086978;28;20056;-80
2021/10/22 00:28:43;;;;;;;0.20;0.20;;;;;;;4.49;100.00;100024.53;5083637;28;20056;-81
2021/10/22 00:31:16;;;;;;;0.35;0.35;;;;;;;4.55;100.00;100002.78;5086546;28;20048;-80
2021/10/22 00:33:50;;;;;;;0.20;0.20;;;;;;;4.57;100.00;100006.06;5086771;28;20055;-81
2021/10/22 00:36:24;;;;;;;0.20;0.20;;;;;;;4.47;100.00;99994.38;5094562;28;20051;-81
2021/10/22 00:38:52;;;;;;;0.20;0.20;;;;;;;4.47;100.00;100003.25;5092455;28;20671;-81
2021/10/22 00:41:26;;;;;;;0.20;0.20;;;;;;;4.54;100.00;99998.50;5091340;28;20051;-80
2021/10/22 00:43:59;;;;;;;0.20;0.20;;;;;;;4.50;100.00;100000.06;5088233;28;20051;-80
2021/10/22 00:46:35;;;;;;;0.20;0.20;;;;;;;4.51;100.00;99996.28;5085522;28;20059;-80
2021/10/22 00:49:10;;;;;;;0.30;0.30;;;;;;;4.56;100.00;100009.81;5085095;28;20052;-81
2021/10/22 00:51:44;;;;;;;0.20;0.20;;;;;;;4.48;100.00;99994.09;5087409;28;20051;-81
2021/10/22 00:54:17;;;;;;;0.20;0.20;;;;;;;4.53;100.00;100006.81;5086276;28;20052;-80
2021/10/22 00:56:50;;;;;;;0.30;0.30;;;;;;;4.52;100.00;100006.00;5092693;28;20040;-81
2021/10/22 00:59:19;;;;;;;0.28;0.28;;;;;;;4.55;100.00;100004.69;5080322;28;20067;-81
2021/10/22 01:01:52;;;;;;;0.22;0.22;;;;;;;4.51;100.00;99998.97;5086011;28;20492;-81
2021/10/22 01:04:27;;;;;;;0.20;0.20;;;;;;;4.59;100.00;100001.19;5101226;28;20563;-81
2021/10/22 01:07:01;;;;;;;0.15;0.15;;;;;;;4.43;100.00;99989.50;5093899;28;20415;-80
2021/10/22 01:09:29;;;;;;;0.20;0.20;;;;;;;4.47;100.00;100005.16;5091948;28;20500;-79
2021/10/22 01:12:04;;;;;;;0.20;0.20;;;;;;;4.44;100.00;99995.69;5075923;28;20045;-80
2021/10/22 01:14:37;;;;;;;0.15;0.15;;;;;;;4.45;100.00;100010.78;5092068;28;20047;-81
2021/10/22 01:17:32;;;;;;;0.20;0.20;;;;;;;4.41;100.00;100012.38;5076136;28;20507;-79
2021/10/22 01:20:02;;;;;;;0.20;0.20;;;;;;;4.44;100.00;100022.63;5084826;28;20040;-81
2021/10/22 01:22:36;;;;;;;0.20;0.20;;;;;;;4.43;100.00;100021.00;5089710;28;20479;-80
2021/10/22 01:25:12;;;;;;;0.20;0.20;;;;;;;4.38;100.00;100011.00;5089631;28;20052;-81
2021/10/22 01:27:47;;;;;;;0.20;0.20;;;;;;;4.48;100.00;100023.75;5089775;28;20043;-80
2021/10/22 01:30:22;;;;;;;0.20;0.20;;;;;;;4.51;100.00;100006.25;5088991;28;20135;-79
2021/10/22 01:33:01;;;;;;;0.20;0.20;;;;;;;4.50;100.00;100020.78;5109272;28;20047;-80
2021/10/22 01:35:35;;;;;;;0.30;0.30;;;;;;;4.50;100.00;100021.63;5081071;28;20060;-81
2021/10/22 01:38:10;;;;;;;0.20;0.20;;;;;;;4.53;100.00;100029.19;5094077;28;20066;-80
2021/10/22 01:40:43;;;;;;;0.20;0.20;;;;;;;4.54;100.00;100049.69;5085779;28;20048;-80
2021/10/22 01:43:17;;;;;;;0.30;0.30;;;;;;;4.55;100.00;100051.28;5090224;28;20074;-80
2021/10/22 01:45:50;;;;;;;0.20;0.20;;;;;;;4.59;100.00;100048.91;5093158;28;20523;-80
2021/10/22 01:48:20;;;;;;;0.30;0.30;;;;;;;4.64;100.00;100045.44;5091068;28;20048;-80
2021/10/22 01:50:48;;;;;;;0.15;0.15;;;;;;;4.62;100.00;100031.41;5083763;28;20045;-79
2021/10/22 01:53:22;;;;;;;0.30;0.30;;;;;;;4.64;100.00;100035.50;5108423;28;20055;-80
2021/10/22 01:55:56;;;;;;;0.20;0.20;;;;;;;4.64;100.00;100032.78;5093125;28;20051;-79
2021/10/22 01:58:29;;;;;;;0.20;0.20;;;;;;;4.65;100.00;100034.41;5093023;28;20507;-79
2021/10/22 02:01:04;;;;;;;0.20;0.20;;;;;;;4.66;100.00;100038.72;5092463;28;20040;-80
2021/10/22 02:03:37;;;;;;;0.30;0.30;;;;;;;4.66;100.00;100030.66;5108056;28;20062;-79
2021/10/22 02:06:10;;;;;;;0.20;0.20;;;;;;;4.63;100.00;100038.41;5090960;28;20066;-80
2021/10/22 02:08:45;;;;;;;0.20;0.20;;;;;;;4.63;100.00;100033.03;5084020;28;20044;-79
2021/10/22 02:11:13;;;;;;;0.20;0.20;;;;;;;4.56;100.00;100027.88;5089474;28;20055;-80
2021/10/22 02:13:47;;;;;;;0.20;0.20;;;;;;;4.59;100.00;100038.94;5087035;28;20055;-80
2021/10/22 02:16:15;;;;;;;0.20;0.20;;;;;;;4.51;100.00;100017.84;5083875;28;20052;-80
2021/10/22 02:18:49;;;;;;;0.20;0.20;;;;;;;4.53;100.00;100018.41;5086207;28;20040;-81
2021/10/22 02:21:19;;;;;;;0.20;0.20;;;;;;;4.52;100.00;100022.16;5100384;28;20397;-81
2021/10/22 02:23:48;;;;;;;0.20;0.20;;;;;;;4.54;100.00;100014.66;5092356;28;20059;-80
2021/10/22 02:26:16;;;;;;;0.20;0.20;;;;;;;4.61;100.00;100017.13;5085905;28;20060;-80
2021/10/22 02:28:49;;;;;;;0.20;0.20;;;;;;;4.55;100.00;100008.19;5096845;27;20488;-80
2021/10/22 02:31:25;;;;;;;0.20;0.20;;;;;;;4.65;100.00;100010.16;5087732;28;20048;-80
2021/10/22 02:33:59;;;;;;;0.28;0.28;;;;;;;4.64;100.00;100013.09;5090412;28;20051;-80
2021/10/22 02:36:32;;;;;;;0.20;0.20;;;;;;;4.63;100.00;100016.84;5092241;28;20044;-80
2021/10/22 02:39:07;;;;;;;0.20;0.20;;;;;;;4.62;100.00;100005.28;5088721;28;20048;-81
2021/10/22 02:41:35;;;;;;;0.20;0.20;;;;;;;4.67;100.00;100008.03;5089607;28;20047;-80
2021/10/22 02:44:03;;;;;;;0.20;0.20;;;;;;;4.67;100.00;100021.50;5088824;28;20039;-81
2021/10/22 02:46:37;;;;;;;0.10;0.10;;;;;;;4.69;100.00;100015.84;5090523;28;20056;-79
2021/10/22 02:49:11;;;;;;;0.20;0.20;;;;;;;4.74;100.00;100014.00;5090889;28;20063;-81
2021/10/22 02:51:44;;;;;;;0.20;0.20;;;;;;;4.81;100.00;100012.97;5092742;28;20055;-80
2021/10/22 02:54:20;;;;;;;0.20;0.20;;;;;;;4.74;100.00;100010.50;5088652;28;20043;-81
2021/10/22 02:56:53;;;;;;;0.20;0.20;;;;;;;4.75;100.00;100004.84;5089661;28;20062;-80
2021/10/22 02:59:26;;;;;;;0.20;0.20;;;;;;;4.76;100.00;100013.75;5082335;28;20055;-81
2021/10/22 03:01:59;;;;;;;0.20;0.20;;;;;;;4.76;100.00;100008.34;5087549;28;20584;-79
2021/10/22 03:04:27;;;;;;;0.20;0.20;;;;;;;4.75;100.00;100006.72;5090553;28;20060;-81
2021/10/22 03:07:00;;;;;;;0.28;0.28;;;;;;;4.70;100.00;99993.22;5089352;28;20060;-81
2021/10/22 03:09:30;;;;;;;0.20;0.20;;;;;;;4.82;100.00;99987.63;5087080;28;20059;-81
2021/10/22 03:11:58;;;;;;;0.20;0.20;;;;;;;4.79;100.00;99990.84;5078475;28;20055;-81
2021/10/22 03:14:26;;;;;;;0.20;0.20;;;;;;;4.79;100.00;99991.66;5085262;28;20051;-81
2021/10/22 03:16:59;;;;;;;0.20;0.20;;;;;;;4.73;100.00;100001.59;5107336;28;20063;-80
2021/10/22 03:19:33;;;;;;;0.20;0.20;;;;;;;4.77;100.00;99993.81;5087394;28;20055;-80
2021/10/22 03:22:01;;;;;;;0.20;0.20;;;;;;;4.82;100.00;99990.31;5088273;28;20044;-81
2021/10/22 03:24:31;;;;;;;0.20;0.20;;;;;;;4.71;100.00;99981.34;5102147;28;20051;-80
2021/10/22 03:26:59;;;;;;;0.20;0.20;;;;;;;4.77;100.00;99972.25;5089596;28;20040;-80
2021/10/22 03:29:32;;;;;;;0.20;0.20;;;;;;;4.75;100.00;99963.59;5086719;28;20671;-82
2021/10/22 03:32:06;;;;;;;0.20;0.20;;;;;;;4.69;100.00;99967.31;5089131;28;20048;-80
2021/10/22 03:34:40;;;;;;;0.20;0.20;;;;;;;4.74;100.00;99972.75;5090319;28;20066;-80
2021/10/22 03:37:13;;;;;;;0.20;0.20;;;;;;;4.74;100.00;99962.78;5091195;28;20066;-79
2021/10/22 03:39:49;;;;;;;0.20;0.20;;;;;;;4.72;100.00;99959.56;5089123;28;20040;-81
2021/10/22 03:42:17;;;;;;;0.20;0.20;;;;;;;4.76;100.00;99959.81;5089166;28;20071;-81
2021/10/22 03:44:50;;;;;;;0.20;0.20;;;;;;;4.74;100.00;99960.09;5090924;28;20043;-81
2021/10/22 03:47:23;;;;;;;0.20;0.20;;;;;;;4.79;100.00;99958.50;5085318;28;20044;-80
2021/10/22 03:49:56;;;;;;;0.20;0.20;;;;;;;4.79;100.00;99950.41;5089042;28;20055;-81
2021/10/22 03:52:30;;;;;;;0.20;0.20;;;;;;;4.84;100.00;99953.16;5090721;28;20063;-82
2021/10/22 03:55:05;;;;;;;0.17;0.17;;;;;;;4.76;100.00;99952.56;5087798;28;20040;-82
2021/10/22 03:57:38;;;;;;;0.20;0.20;;;;;;;4.77;100.00;99954.16;5089235;28;20055;-79
2021/10/22 04:00:12;;;;;;;0.20;0.20;;;;;;;4.78;100.00;99955.00;5105894;28;20055;-80
2021/10/22 04:02:45;;;;;;;0.22;0.22;;;;;;;4.82;100.00;99945.31;5088280;28;20491;-80
2021/10/22 04:05:14;;;;;;;0.20;0.20;;;;;;;4.83;100.00;99932.66;5099016;28;20496;-81
2021/10/22 04:07:47;;;;;;;0.20;0.20;;;;;;;4.90;100.00;99935.91;5093057;28;20048;-81
2021/10/22 04:10:22;;;;;;;0.20;0.20;;;;;;;4.86;100.00;99929.44;5093315;28;20056;-81
2021/10/22 04:12:50;;;;;;;0.10;0.10;;;;;;;4.91;100.00;99918.69;5092654;28;20055;-81
2021/10/22 04:15:23;;;;;;;0.30;0.30;;;;;;;4.89;100.00;99915.44;5094134;28;20051;-81
2021/10/22 04:17:57;;;;;;;0.20;0.20;;;;;;;4.81;100.00;99913.25;5093877;28;20048;-82
2021/10/22 04:20:30;;;;;;;0.20;0.20;;;;;;;4.83;100.00;99924.56;5093843;28;20051;-80
2021/10/22 04:23:04;;;;;;;0.20;0.20;;;;;;;4.78;100.00;99917.25;5082365;28;20036;-80
2021/10/22 04:25:40;;;;;;;0.20;0.20;;;;;;;4.90;100.00;99911.66;5086605;28;20040;-81
2021/10/22 04:28:13;;;;;;;0.20;0.20;;;;;;;4.77;100.00;99902.97;5092496;28;20048;-81
2021/10/22 04:30:46;;;;;;;0.30;0.30;;;;;;;4.76;100.00;99887.03;5085530;28;20047;-81
2021/10/22 04:33:20;;;;;;;0.20;0.20;;;;;;;4.77;100.00;99894.06;5089231;28;20043;-81
2021/10/22 04:35:48;;;;;;;0.20;0.20;;;;;;;4.75;100.00;99885.41;5094057;28;20036;-81
2021/10/22 04:41:08;;;;;;;0.20;0.20;;;;;;;4.70;100.00;99894.28;5092350;28;20044;-80
2021/10/22 04:43:41;;;;;;;0.20;0.20;;;;;;;4.67;100.00;99889.44;5090523;28;20040;-81
2021/10/22 04:46:10;;;;;;;0.20;0.20;;;;;;;4.64;100.00;99881.03;5088320;28;20056;-82
2021/10/22 04:48:45;;;;;;;0.20;0.20;;;;;;;4.65;100.00;99878.09;5084280;28;20059;-81
2021/10/22 04:51:14;;;;;;;0.20;0.20;;;;;;;4.65;100.00;99859.22;5083092;28;20491;-80
2021/10/22 04:53:48;;;;;;;0.25;0.25;;;;;;;4.68;100.00;99865.97;5088940;28;20488;-81
2021/10/22 04:56:23;;;;;;;0.30;0.30;;;;;;;4.68;100.00;99868.66;5092611;28;20056;-82
2021/10/22 04:58:56;;;;;;;0.20;0.20;;;;;;;4.70;100.00;99859.25;5103081;28;20063;-80
2021/10/22 05:01:29;;;;;;;0.20;0.20;;;;;;;4.71;100.00;99870.84;5093528;28;20400;-82
2021/10/22 05:04:03;;;;;;;0.20;0.20;;;;;;;4.68;100.00;99856.03;5094236;28;20376;-82
2021/10/22 05:06:36;;;;;;;0.20;0.20;;;;;;;4.68;100.00;99842.53;5084913;28;20415;-80
2021/10/22 05:09:04;;;;;;;0.20;0.20;;;;;;;4.73;100.00;99860.63;5092319;28;20059;-82
2021/10/22 05:11:34;;;;;;;0.30;0.30;;;;;;;4.73;100.00;99849.84;5080925;28;20049;-82
2021/10/22 05:14:07;;;;;;;0.13;0.13;;;;;;;4.77;100.00;99848.25;5082031;28;20037;-81
2021/10/22 05:16:35;;;;;;;0.20;0.20;;;;;;;4.66;100.00;99841.19;5088635;28;20514;-81
2021/10/22 05:19:05;;;;;;;0.22;0.22;;;;;;;4.76;100.00;99847.44;5091229;28;20783;-82
2021/10/22 05:21:38;;;;;;;0.20;0.20;;;;;;;4.78;100.00;99844.47;5089863;28;20476;-81
2021/10/22 05:24:11;;;;;;;0.20;0.20;;;;;;;4.84;100.00;99846.13;5080388;28;20056;-82
2021/10/22 05:26:40;;;;;;;0.30;0.30;;;;;;;4.87;100.00;99839.38;5107579;28;20048;-79
2021/10/22 05:29:11;;;;;;;0.20;0.20;;;;;;;4.89;100.00;99840.75;5092584;28;20048;-81
2021/10/22 05:31:39;;;;;;;0.20;0.20;;;;;;;4.98;100.00;99818.69;5086556;28;20491;-82
2021/10/22 05:34:07;;;;;;;0.22;0.22;;;;;;;4.91;100.00;99827.00;5090917;28;20066;-81
2021/10/22 05:36:36;;;;;;;0.20;0.20;;;;;;;4.87;100.00;99815.94;5090730;28;20404;-79
2021/10/22 05:39:09;;;;;;;0.30;0.30;;;;;;;4.91;100.00;99835.09;5091824;28;20059;-83
2021/10/22 05:41:44;;;;;;;0.30;0.30;;;;;;;4.94;100.00;99796.81;5088995;28;20049;-82
2021/10/22 05:44:12;;;;;;;0.20;0.20;;;;;;;4.97;100.00;99800.88;5101402;27;20056;-82
2021/10/22 05:46:45;;;;;;;0.20;0.20;;;;;;;4.87;100.00;99802.44;5091726;28;20052;-82
2021/10/22 05:49:18;;;;;;;0.20;0.20;;;;;;;4.97;100.00;99804.38;5091724;28;20420;-82
2021/10/22 05:51:52;;;;;;;0.20;0.20;;;;;;;4.93;100.00;99796.03;5084853;28;20127;-81
2021/10/22 05:54:25;;;;;;;0.10;0.10;;;;;;;4.99;100.00;99783.34;5091546;28;20051;-82
2021/10/22 05:57:00;;;;;;;0.22;0.22;;;;;;;5.02;100.00;99809.00;5108571;28;20063;-82
2021/10/22 05:59:34;;;;;;;0.20;0.20;;;;;;;4.98;100.00;99797.13;5088989;28;20369;-83
2021/10/22 06:02:02;;;;;;;0.20;0.20;;;;;;;4.91;100.00;99797.34;5099532;28;20075;-81
2021/10/22 06:04:35;;;;;;;0.20;0.20;;;;;;;4.91;100.00;99783.88;5086090;28;20044;-81
2021/10/22 06:07:04;;;;;;;0.25;0.25;;;;;;;4.94;100.00;99788.72;5091225;28;20059;-81
2021/10/22 06:09:32;;;;;;;0.20;0.20;;;;;;;5.00;100.00;99790.38;5107050;28;20052;-81
2021/10/22 06:12:02;;;;;;;0.20;0.20;;;;;;;4.99;100.00;99802.22;5088286;28;20507;-81
2021/10/22 06:14:35;;;;;;;0.20;0.20;;;;;;;5.05;100.00;99790.38;5084036;28;20043;-83
2021/10/22 06:17:08;;;;;;;0.20;0.20;;;;;;;5.07;100.00;99796.34;5091535;28;20075;-80
2021/10/22 06:19:40;;;;;;;0.20;0.20;;;;;;;5.05;100.00;99801.16;5092769;28;20044;-82
2021/10/22 06:22:36;;;;;;;0.20;0.20;;;;;;;5.03;100.00;99789.03;5090388;28;20071;-82
2021/10/22 06:25:09;;;;;;;0.25;0.25;;;;;;;5.10;100.00;99790.41;5078512;28;20055;-80
2021/10/22 06:27:44;;;;;;;0.20;0.20;;;;;;;5.16;100.00;99782.34;5090690;28;20048;-82
2021/10/22 06:30:12;;;;;;;0.22;0.22;;;;;;;5.14;100.00;99788.00;5087736;28;20049;-81
2021/10/22 06:32:46;;;;;;;0.20;0.20;;;;;;;5.20;100.00;99776.13;5089831;28;20531;-80
2021/10/22 06:35:19;;;;;;;0.20;0.20;;;;;;;5.19;100.00;99773.69;5087246;28;20044;-80
2021/10/22 06:37:54;;;;;;;0.20;0.20;;;;;;;5.13;100.00;99774.78;5087843;28;20059;-81
2021/10/22 06:40:27;;;;;;;0.30;0.30;;;;;;;5.18;100.00;99762.13;5096886;28;20054;-82
2021/10/22 06:43:01;;;;;;;0.17;0.17;;;;;;;5.21;100.00;99764.28;5089668;28;20059;-84
2021/10/22 06:45:39;;;;;;;0.30;0.30;;;;;;;5.21;100.00;99752.69;5087574;28;20055;-83
2021/10/22 06:48:13;;;;;;;0.20;0.20;;;;;;;5.30;100.00;99756.44;5091731;28;20044;-83
2021/10/22 06:50:47;;;;;;;0.20;0.20;;;;;;;5.34;100.00;99759.44;5089856;28;20055;-80
2021/10/22 06:53:20;;;;;;;0.20;0.20;;;;;;;5.38;100.00;99769.41;5086481;28;20052;-82
2021/10/22 06:55:54;;;;;;;0.20;0.20;;;;;;;5.41;100.00;99762.69;5090095;28;20051;-81
2021/10/22 06:58:28;;;;;;;0.20;0.20;;;;;;;5.45;100.00;99758.38;5099103;28;20048;-80
2021/10/22 07:00:59;;;;;;;0.10;0.10;;;;;;;5.48;100.00;99760.53;5088202;28;20075;-80
2021/10/22 07:03:39;;;;;;;0.20;0.20;;;;;;;5.58;100.00;99743.56;5086592;28;20055;-80
2021/10/22 07:08:59;;;;;;;0.20;0.20;;;;;;;5.55;100.00;99755.69;5053473;28;21311;-81
2021/10/22 07:11:33;;;;;;;0.20;0.20;;;;;;;5.55;100.00;99771.88;5059017;28;20051;-80
2021/10/22 07:14:08;;;;;;;0.20;0.20;;;;;;;5.67;100.00;99760.00;5062474;28;20048;-81
2021/10/22 07:16:42;;;;;;;0.20;0.20;;;;;;;5.69;100.00;99755.13;5056388;28;20061;-80
2021/10/22 07:19:15;;;;;;;0.20;0.20;;;;;;;5.82;100.00;99746.50;5060827;28;20503;-81
2021/10/22 07:21:53;;;;;;;0.28;0.28;;;;;;;5.90;100.00;99751.34;5059618;28;20060;-80
2021/10/22 07:24:26;;;;;;;0.20;0.20;;;;;;;5.80;100.00;99743.28;5063396;28;20064;-80
2021/10/22 07:27:00;;;;;;;0.20;0.20;;;;;;;5.99;100.00;99746.25;5079511;28;20498;-79
2021/10/22 07:29:29;;;;;;;0.20;0.20;;;;;;;6.02;100.00;99743.03;5066073;28;20079;-79
2021/10/22 07:31:58;;;;;;;0.20;0.20;;;;;;;6.01;100.00;99745.97;5072290;28;20056;-80
2021/10/22 07:34:32;;;;;;;0.20;0.20;;;;;;;6.03;100.00;99744.63;5055557;28;20052;-81
2021/10/22 07:37:05;;;;;;;0.20;0.20;;;;;;;6.01;100.00;99738.69;5062944;28;20562;-80
2021/10/22 07:39:39;;;;;;;0.30;0.30;;;;;;;6.03;100.00;99727.63;5057955;28;20130;-79
2021/10/22 07:42:12;;;;;;;0.20;0.20;;;;;;;6.13;100.00;99730.28;5058307;28;20705;-79
2021/10/22 07:44:47;;;;;;;0.20;0.20;;;;;;;6.12;100.00;99713.28;5067118;28;20052;-80
2021/10/22 07:47:22;;;;;;;0.30;0.30;;;;;;;6.22;100.00;99709.72;5061253;28;20800;-80
2021/10/22 07:49:57;;;;;;;0.28;0.28;;;;;;;6.16;100.00;99718.94;5065738;28;20063;-80
2021/10/22 07:52:31;;;;;;;0.20;0.20;;;;;;;6.28;100.00;99718.63;5064343;28;20055;-80
2021/10/22 07:55:05;;;;;;;0.20;0.20;;;;;;;6.13;100.00;99704.09;5063083;28;20075;-81
2021/10/22 07:57:41;;;;;;;0.20;0.20;;;;;;;6.12;100.00;99701.66;5064811;28;20055;-81
2021/10/22 08:00:12;;;;;;;0.30;0.30;;;;;;;6.10;100.00;99710.06;5059747;28;20047;-82
2021/10/22 08:02:41;;;;;;;0.22;0.22;;;;;;;6.11;100.00;99719.75;5079907;28;20796;-83
2021/10/22 08:05:14;;;;;;;0.20;0.20;;;;;;;6.09;100.00;99711.13;5063322;28;20064;-82
2021/10/22 08:07:42;;;;;;;0.20;0.20;;;;;;;6.23;100.00;99710.56;5065637;28;20060;-82
2021/10/22 08:10:16;;;;;;;0.20;0.20;;;;;;;6.19;100.00;99710.28;5075554;28;20755;-82
2021/10/22 08:12:44;;;;;;;0.20;0.20;;;;;;;6.17;100.00;99706.25;5062197;28;20048;-82
2021/10/22 08:15:19;;;;;;;0.20;0.20;;;;;;;6.17;100.00;99715.13;5063809;28;20052;-82
2021/10/22 08:17:52;;;;;;;0.20;0.20;;;;;;;6.34;100.00;99703.22;5066832;28;20052;-83
2021/10/22 08:20:22;;;;;;;0.20;0.20;;;;;;;6.46;100.00;99706.41;5066575;28;20060;-81
2021/10/22 08:22:56;;;;;;;0.20;0.20;;;;;;;6.44;100.00;99697.78;5065396;28;20064;-81
2021/10/22 08:25:29;;;;;;;0.20;0.20;;;;;;;6.54;100.00;99713.16;5066940;28;20682;-82
2021/10/22 08:28:02;;;;;;;0.20;0.20;;;;;;;6.47;100.00;99702.63;5068587;28;20059;-81
2021/10/22 08:30:37;;;;;;;0.17;0.17;;;;;;;6.67;100.00;99717.97;5081834;28;20488;-82
2021/10/22 08:33:11;;;;;;;0.20;0.20;;;;;;;6.67;100.00;99717.97;5074764;28;20052;-81
2021/10/22 08:35:41;;;;;;;0.20;0.20;;;;;;;6.72;100.00;99720.63;5063866;28;20045;-81
2021/10/22 08:38:09;;;;;;;0.28;0.28;;;;;;;6.75;100.00;99722.78;5066779;28;20059;-81
2021/10/22 08:40:43;;;;;;;0.20;0.20;;;;;;;6.77;100.00;99706.28;5066049;28;20044;-82
2021/10/22 08:43:16;;;;;;;0.20;0.20;;;;;;;6.84;100.00;99698.66;5070135;28;20059;-81
2021/10/22 08:45:53;;;;;;;0.20;0.20;;;;;;;6.97;100.00;99694.53;5070082;28;20045;-82
2021/10/22 08:48:28;;;;;;;0.30;0.30;;;;;;;7.09;100.00;99694.19;5069670;28;20617;-81
2021/10/22 08:51:01;;;;;;;0.20;0.20;;;;;;;7.09;100.00;99708.53;5077600;28;20479;-82
2021/10/22 08:53:29;;;;;;;0.20;0.20;;;;;;;7.22;100.00;99719.81;5085152;28;20060;-84
2021/10/22 08:56:05;;;;;;;0.20;0.20;;;;;;;7.31;100.00;99716.22;5071619;28;20052;-82
2021/10/22 08:58:34;;;;;;;0.20;0.20;;;;;;;7.44;100.00;99703.16;5067330;28;20106;-82
2021/10/22 09:01:03;;;;;;;0.20;0.20;;;;;;;7.38;100.00;99696.16;5086281;28;20052;-81
2021/10/22 09:03:38;;;;;;;0.20;0.20;;;;;;;7.14;100.00;99711.22;5068464;28;20491;-83
2021/10/22 09:06:13;;;;;;;0.20;0.20;;;;;;;7.03;100.00;99706.13;5066480;28;20056;-83
2021/10/22 09:08:47;;;;;;;0.20;0.20;;;;;;;6.91;100.00;99699.16;5067521;28;20055;-83
2021/10/22 09:11:24;;;;;;;0.20;0.20;;;;;;;6.86;100.00;99704.59;5072712;28;20060;-82
2021/10/22 09:14:02;;;;;;;0.20;0.20;;;;;;;6.76;100.00;99729.81;5072922;28;20056;-81
2021/10/22 09:16:32;;;;;;;0.20;0.20;;;;;;;6.66;100.00;99713.63;5066661;28;20064;-82
2021/10/22 09:19:05;;;;;;;0.20;0.20;;;;;;;6.55;100.00;99706.66;5067085;28;20064;-82
2021/10/22 09:21:38;;;;;;;0.20;0.20;;;;;;;6.49;100.00;99737.47;5070888;28;20064;-82
2021/10/22 09:24:16;;;;;;;0.20;0.20;;;;;;;6.47;100.00;99735.84;5069668;28;20047;-82
2021/10/22 09:26:54;;;;;;;0.20;0.20;;;;;;;6.45;100.00;99732.63;5072986;28;20064;-81
2021/10/22 09:29:28;;;;;;;0.10;0.10;;;;;;;6.48;100.00;99733.97;5065757;28;20056;-82
2021/10/22 09:32:14;;;;;;;0.30;0.30;;;;;;;6.41;100.00;99742.38;5083296;28;20729;-81
2021/10/22 09:34:52;;;;;;;0.10;0.10;;;;;;;6.45;100.00;99734.53;5067501;28;20048;-82
2021/10/22 09:37:20;;;;;;;0.20;0.20;;;;;;;6.49;100.00;99748.28;5069209;28;20107;-81
2021/10/22 09:40:00;;;;;;;0.25;0.25;;;;;;;6.47;100.00;99753.97;5066682;28;20056;-80
2021/10/22 09:42:36;;;;;;;0.22;0.22;;;;;;;6.42;100.00;99757.53;5067739;28;20056;-81
2021/10/22 09:45:05;;;;;;;0.13;0.13;;;;;;;6.33;100.00;99734.03;5066971;28;20061;-81
2021/10/22 09:47:40;;;;;;;0.20;0.20;;;;;;;6.30;100.00;99746.19;5074036;28;20044;-80
2021/10/22 09:50:13;;;;;;;0.20;0.20;;;;;;;6.20;100.00;99747.03;5071671;28;20056;-80
2021/10/22 09:52:46;;;;;;;0.22;0.22;;;;;;;6.12;100.00;99745.69;5072788;28;20055;-82
2021/10/22 09:55:20;;;;;;;0.30;0.30;;;;;;;6.22;100.00;99747.56;5069091;28;20044;-81
2021/10/22 09:58:05;;;;;;;0.25;0.25;;;;;;;6.23;100.00;99729.47;5067643;28;20049;-81
2021/10/22 10:00:38;;;;;;;0.20;0.20;;;;;;;6.27;100.00;99720.53;5068894;28;20060;-81
2021/10/22 10:03:15;;;;;;;0.20;0.20;;;;;;;6.41;100.00;99741.59;5070432;28;20045;-80
2021/10/22 10:05:48;;;;;;;0.20;0.20;;;;;;;6.33;100.00;99739.44;5070636;28;20056;-81
2021/10/22 10:08:21;;;;;;;0.20;0.20;;;;;;;6.21;100.00;99739.72;5072512;28;20045;-82
2021/10/22 10:10:50;;;;;;;0.20;0.20;;;;;;;6.29;100.00;99749.97;5072456;28;20040;-81
2021/10/22 10:13:23;;;;;;;0.20;0.20;;;;;;;6.24;100.00;99764.31;5069166;28;20050;-82
2021/10/22 10:15:58;;;;;;;0.20;0.20;;;;;;;6.21;100.00;99775.66;5069008;28;20056;-79
2021/10/22 10:18:29;;;;;;;0.20;0.20;;;;;;;6.10;100.00;99766.78;5069525;28;20067;-81
2021/10/22 10:21:04;;;;;;;0.20;0.20;;;;;;;6.24;100.00;99777.84;5064314;28;20055;-81
2021/10/22 10:23:41;;;;;;;0.20;0.20;;;;;;;6.18;100.00;99765.41;5072061;28;20060;-81
2021/10/22 10:26:27;;;;;;;0.30;0.30;;;;;;;6.23;100.00;99775.41;5072785;28;20059;-81
2021/10/22 10:28:58;;;;;;;0.20;0.20;;;;;;;6.18;100.00;99788.91;5067368;28;20053;-81
2021/10/22 10:31:35;;;;;;;0.30;0.30;;;;;;;6.15;100.00;99795.66;5069984;28;20517;-82
2021/10/22 10:34:43;;;;;;;0.20;0.20;;;;;;;6.19;100.00;99799.44;5066533;28;20704;-82
2021/10/22 10:37:27;;;;;;;0.20;0.20;;;;;;;6.19;100.00;99794.03;5067210;28;21222;-81
2021/10/22 10:40:01;;;;;;;0.10;0.10;;;;;;;6.19;100.00;99791.34;5072204;28;20060;-81
2021/10/22 10:42:34;;;;;;;0.20;0.20;;;;;;;6.21;100.00;99794.56;5084380;28;20064;-80
2021/10/22 10:45:04;;;;;;;0.20;0.20;;;;;;;6.37;100.00;99799.97;5068861;28;20389;-80
2021/10/22 10:47:39;;;;;;;0.20;0.20;;;;;;;6.36;100.00;99801.03;5068363;28;20048;-80
2021/10/22 10:50:18;;;;;;;0.20;0.20;;;;;;;6.45;100.00;99812.91;5067337;28;20051;-80
2021/10/22 10:52:58;;;;;;;0.20;0.20;;;;;;;6.39;100.00;99806.69;5070891;28;20044;-80
2021/10/22 10:55:32;;;;;;;0.20;0.20;;;;;;;6.47;100.00;99808.03;5066969;28;20060;-82
2021/10/22 10:58:13;;;;;;;0.15;0.15;;;;;;;6.46;100.00;99822.63;5085009;28;20495;-81
2021/10/22 11:00:48;;;;;;;0.20;0.20;;;;;;;6.40;100.00;99848.06;5069985;28;20045;-82
2021/10/22 11:03:28;;;;;;;0.20;0.20;;;;;;;6.32;100.00;99844.00;5071736;28;21745;-80
2021/10/22 11:06:06;;;;;;;0.20;0.20;;;;;;;6.32;100.00;99852.09;5090071;28;20553;-81
2021/10/22 11:08:40;;;;;;;0.20;0.20;;;;;;;6.24;100.00;99852.66;5061942;28;20056;-81
2021/10/22 11:11:26;;;;;;;0.30;0.30;;;;;;;6.29;100.00;99863.47;5075917;27;20060;-80
2021/10/22 11:14:12;;;;;;;0.22;0.22;;;;;;;6.26;100.00;99878.31;5056440;28;20543;-81
2021/10/22 11:17:01;;;;;;;0.20;0.20;;;;;;;6.20;100.00;99879.41;5059323;28;20055;-80
2021/10/22 11:19:35;;;;;;;0.20;0.20;;;;;;;6.18;100.00;99880.78;5078743;28;20059;-80
2021/10/22 11:22:09;;;;;;;0.20;0.20;;;;;;;6.13;100.00;99874.28;5060990;28;20104;-79
2021/10/22 11:24:40;;;;;;;0.20;0.20;;;;;;;6.18;100.00;99865.34;5067469;28;20060;-81
2021/10/22 11:27:10;;;;;;;0.20;0.20;;;;;;;6.28;100.00;99861.84;5057044;28;20052;-81
2021/10/22 11:29:44;;;;;;;0.30;0.30;;;;;;;6.33;100.00;99848.34;5060213;28;20059;-81
2021/10/22 11:32:16;;;;;;;0.20;0.20;;;;;;;6.34;100.00;99859.94;5059848;28;20512;-82
2021/10/22 11:34:48;;;;;;;0.20;0.20;;;;;;;6.28;100.00;99854.56;5062327;28;20516;-82
2021/10/22 11:37:25;;;;;;;0.20;0.20;;;;;;;6.38;100.00;99861.84;5056469;28;20562;-82
2021/10/22 11:39:55;;;;;;;0.20;0.20;;;;;;;6.30;100.00;99860.50;5055435;28;20048;-81
2021/10/22 11:42:27;;;;;;;0.20;0.20;;;;;;;6.41;100.00;99855.88;5059461;28;21330;-81
2021/10/22 11:44:59;;;;;;;0.20;0.20;;;;;;;6.59;100.00;99859.91;5077408;28;20059;-82
2021/10/22 11:47:34;;;;;;;0.20;0.20;;;;;;;6.72;100.00;99860.44;5061763;28;20063;-82
2021/10/22 11:50:11;;;;;;;0.20;0.20;;;;;;;6.87;100.00;99863.09;5067354;28;20040;-81
2021/10/22 11:52:46;;;;;;;0.13;0.13;;;;;;;6.85;100.00;99861.75;5054620;28;20048;-82
2021/10/22 11:55:19;;;;;;;0.20;0.20;;;;;;;6.76;100.00;99862.31;5057589;28;20058;-81
2021/10/22 11:57:49;;;;;;;0.20;0.20;;;;;;;6.80;100.00;99873.41;5058278;28;20068;-81
2021/10/22 12:00:17;;;;;;;0.20;0.20;;;;;;;6.76;100.00;99877.72;5063420;28;20067;-80
2021/10/22 12:02:52;;;;;;;0.20;0.20;;;;;;;6.63;100.00;99901.53;5056177;28;20055;-80
2021/10/22 12:05:27;;;;;;;0.20;0.20;;;;;;;6.56;100.00;99906.44;5056765;28;20051;-80